»·PEaware :: N24994 KSNA-KAVX

N24994 :: KSNA-KAVX

FLIGHT INFORMATION

Flight Status: Arrived
Operator: Privately registered:
United States
More flights under this callsign
Pilot: Chris W. (16363)
Aircraft: CESSNA 172 SKYHAWK
(C172)
More flights by this aircraft type
Origin: KSNA John Wayne-Orange Co
United States
Destination: KAVX Catalina
United States
More flights between these airports :: More routes between these airports
Route: SLI V21 SXC
File this flight plan on PilotEdge
Remarks: I-7
Altitude:
(Current/Filed)
4,000ft
Speed:
(Current/Filed)
110kts
Departed: 27-Dec-17 11:11 PM
Arrived: 27-Dec-17 11:45 PM
Distance/Time
Traveled:
32nm/0:34
Distance/Time
To Go:
Arrived

Flight Plot

Page will automatically refresh every two minutes.


Map Options




Map Legend


Flown Route
Filed Route
Departure Airport
Arrival Airport
Navaid (VOR, NDB)
Fix

Horizontal Profiles

Position Reports

Time Latitude Longitude Heading Altitude Ground
Speed
27-Dec-17 23:00 33.671316 -117.867965 28 60ft 0kts
27-Dec-17 23:01 33.671316 -117.867965 28 60ft 0kts
27-Dec-17 23:02 33.671316 -117.867965 28 60ft 0kts
27-Dec-17 23:03 33.671316 -117.867965 28 60ft 0kts
27-Dec-17 23:04 33.671316 -117.867965 28 60ft 0kts
27-Dec-17 23:05 33.671316 -117.867965 28 60ft 0kts
27-Dec-17 23:06 33.672775 -117.867648 13 60ft 16kts
27-Dec-17 23:07 33.678582 -117.864265 28 60ft 19kts
27-Dec-17 23:08 33.680019 -117.863676 299 60ft 0kts
27-Dec-17 23:09 33.680019 -117.863676 299 60ft 0kts
27-Dec-17 23:10 33.680019 -117.863676 299 60ft 0kts
27-Dec-17 23:11 33.680019 -117.863676 299 60ft 0kts
27-Dec-17 23:12 33.680019 -117.863676 299 60ft 0kts
27-Dec-17 23:13 33.680019 -117.863676 299 60ft 0kts
27-Dec-17 23:14 33.680019 -117.863676 299 60ft 0kts
27-Dec-17 23:15 33.680019 -117.863677 299 60ft 0kts
27-Dec-17 23:16 33.680019 -117.863676 299 60ft 0kts
27-Dec-17 23:17 33.678147 -117.865375 210 60ft 63kts
27-Dec-17 23:18 33.657870 -117.884936 227 769ft 106kts
27-Dec-17 23:19 33.638598 -117.911061 227 1667ft 103kts
27-Dec-17 23:20 33.623626 -117.936608 254 2764ft 90kts
27-Dec-17 23:21 33.617664 -117.963992 255 3854ft 80kts
27-Dec-17 23:22 33.611639 -117.991769 256 4042ft 125kts
27-Dec-17 23:23 33.603573 -118.030708 256 3998ft 116kts
27-Dec-17 23:24 33.595788 -118.067826 256 4001ft 112kts
27-Dec-17 23:25 33.588163 -118.103662 256 4000ft 110kts
27-Dec-17 23:26 33.580373 -118.139288 256 3999ft 110kts
27-Dec-17 23:27 33.572437 -118.174731 256 3998ft 109kts
27-Dec-17 23:28 33.564467 -118.209724 256 3997ft 108kts
27-Dec-17 23:29 33.556454 -118.244564 256 3996ft 107kts
27-Dec-17 23:30 33.548504 -118.279040 255 3994ft 107kts
27-Dec-17 23:31 33.535353 -118.309629 208 3990ft 109kts
27-Dec-17 23:32 33.505933 -118.305333 205 4069ft 106kts
27-Dec-17 23:33 33.484220 -118.329317 210 4017ft 105kts
27-Dec-17 23:34 33.458961 -118.344983 218 4012ft 100kts
27-Dec-17 23:35 33.436918 -118.365070 220 4009ft 100kts
27-Dec-17 23:36 33.414553 -118.384820 219 4012ft 99kts
27-Dec-17 23:37 33.392220 -118.404390 219 4034ft 98kts
27-Dec-17 23:38 33.383510 -118.428428 324 4020ft 93kts
27-Dec-17 23:39 33.407684 -118.418802 16 4013ft 97kts
27-Dec-17 23:40 33.433842 -118.412408 2 4035ft 93kts
27-Dec-17 23:41 33.459526 -118.408308 3 3915ft 94kts
27-Dec-17 23:42 33.485393 -118.403821 5 3785ft 93kts
27-Dec-17 23:43 33.511400 -118.399003 0 3619ft 94kts
27-Dec-17 23:44 33.537482 -118.398449 337 3511ft 96kts
27-Dec-17 23:45 33.541096 -118.389362 179 3488ft 96kts
27-Dec-17 23:46 33.514541 -118.392721 203 3420ft 96kts
27-Dec-17 23:47 33.489612 -118.405110 196 3203ft 98kts
27-Dec-17 23:48 33.462726 -118.408738 178 3037ft 96kts
27-Dec-17 23:49 33.439226 -118.404123 172 2487ft 84kts
27-Dec-17 23:50 33.418051 -118.398835 200 1713ft 64kts
27-Dec-17 23:51 33.406887 -118.412574 237 1511ft 38kts
27-Dec-17 23:52 33.404965 -118.415049 117 1543ft 0kts
27-Dec-17 23:53 33.404965 -118.415049 117 1543ft 0kts
27-Dec-17 23:54 33.404884 -118.414897 122 1542ft 0kts
27-Dec-17 23:55 33.404884 -118.414897 122 1542ft 0kts
27-Dec-17 23:56 33.404884 -118.414897 122 1542ft 0kts
27-Dec-17 23:57 33.404884 -118.414897 122 1542ft 0kts
27-Dec-17 23:58 33.404884 -118.414897 122 1542ft 0kts
27-Dec-17 23:59 33.404884 -118.414897 122 1542ft 0kts

Navigation Log

Ident Type
1. KSNA Airport
2. SLI Navaid
3. SXC Navaid
4. KAVX Airport